Time;durP1;ratioP1;P1;durP2;ratioP2;P2;SDS_P1;SDS_P2;PMS_P1;PMS_P2;Temp;Humidity;BMP_temperature;BMP_pressure;BME280_temperature;BME280_humidity;BME280_pressure;Samples;Min_cycle;Max_cycle;Signal;HPM_P1;HPM_P2
2021/10/26 00:01:51;;;;;;;8.57;5.25;;;10.60;99.90;;;;;;5043175;28;20025;-61
2021/10/26 00:04:17;;;;;;;7.93;4.47;;;10.60;99.90;;;;;;5032356;28;20037;-59
2021/10/26 00:06:43;;;;;;;10.13;4.78;;;10.60;99.90;;;;;;5031441;28;20025;-59
2021/10/26 00:09:09;;;;;;;7.53;5.07;;;10.60;99.90;;;;;;5027689;28;20048;-58
2021/10/26 00:11:35;;;;;;;9.60;5.10;;;10.60;99.90;;;;;;5052711;28;20021;-61
2021/10/26 00:14:00;;;;;;;7.15;4.22;;;10.60;99.90;;;;;;5048903;28;20063;-60
2021/10/26 00:16:26;;;;;;;5.65;3.70;;;10.60;99.90;;;;;;5051863;28;20502;-59
2021/10/26 00:18:52;;;;;;;10.57;4.10;;;10.60;99.90;;;;;;5048806;28;20052;-60
2021/10/26 00:21:18;;;;;;;8.35;3.58;;;10.60;99.90;;;;;;5058375;23;20387;-73
2021/10/26 00:23:44;;;;;;;14.20;4.78;;;10.60;99.90;;;;;;5042591;23;20060;-59
2021/10/26 00:26:13;;;;;;;6.07;3.92;;;10.70;99.90;;;;;;5031497;28;20017;-60
2021/10/26 00:28:39;;;;;;;6.47;3.78;;;10.70;99.90;;;;;;5030453;28;20550;-60
2021/10/26 00:31:05;;;;;;;7.80;4.20;;;10.70;99.90;;;;;;5029862;28;20025;-61
2021/10/26 00:33:31;;;;;;;7.18;4.18;;;10.70;99.90;;;;;;5031504;28;20123;-60
2021/10/26 00:35:57;;;;;;;7.43;4.47;;;10.70;99.90;;;;;;5029333;28;20124;-61
2021/10/26 00:38:22;;;;;;;7.18;3.67;;;10.70;99.90;;;;;;5029277;28;20138;-61
2021/10/26 00:40:48;;;;;;;7.30;4.00;;;10.60;99.90;;;;;;5031274;28;20021;-61
2021/10/26 00:43:14;;;;;;;9.55;3.83;;;10.70;99.90;;;;;;5027543;28;20088;-61
2021/10/26 00:45:40;;;;;;;6.07;3.83;;;10.60;99.90;;;;;;5030109;28;20116;-61
2021/10/26 00:48:06;;;;;;;6.13;3.80;;;10.70;99.90;;;;;;5029461;28;20029;-61
2021/10/26 00:50:32;;;;;;;7.30;3.80;;;10.70;99.90;;;;;;5030742;28;20033;-60
2021/10/26 00:52:57;;;;;;;5.53;3.58;;;10.70;99.90;;;;;;5012466;28;20029;-61
2021/10/26 00:55:23;;;;;;;10.23;4.10;;;10.70;99.90;;;;;;5027176;28;20037;-60
2021/10/26 00:57:48;;;;;;;5.32;3.70;;;10.70;99.90;;;;;;5031236;28;20060;-60
2021/10/26 01:00:16;;;;;;;9.80;4.15;;;10.70;99.90;;;;;;5030324;28;20483;-61
2021/10/26 01:02:43;;;;;;;6.18;3.67;;;10.70;99.90;;;;;;5028388;28;20463;-61
2021/10/26 01:05:09;;;;;;;7.43;4.40;;;10.70;99.90;;;;;;5025723;28;20026;-59
2021/10/26 01:07:36;;;;;;;5.50;4.07;;;10.70;99.90;;;;;;5031043;28;20064;-60
2021/10/26 01:10:03;;;;;;;6.80;3.40;;;10.60;99.90;;;;;;5010712;28;20533;-60
2021/10/26 01:12:29;;;;;;;8.80;4.00;;;10.60;99.90;;;;;;5030992;28;20041;-61
2021/10/26 01:14:58;;;;;;;6.05;3.85;;;10.60;99.90;;;;;;5030794;28;20095;-60
2021/10/26 01:17:24;;;;;;;5.28;3.47;;;10.60;99.90;;;;;;5030578;28;20068;-60
2021/10/26 01:19:55;;;;;;;7.40;4.53;;;10.60;99.90;;;;;;5030320;28;20037;-61
2021/10/26 01:22:25;;;;;;;7.43;3.95;;;10.60;99.90;;;;;;5027468;28;20041;-61
2021/10/26 01:24:51;;;;;;;5.85;3.80;;;10.60;99.90;;;;;;5020848;28;20029;-61
2021/10/26 01:27:17;;;;;;;8.63;4.10;;;10.60;99.90;;;;;;5029758;28;20479;-60
2021/10/26 01:29:43;;;;;;;6.20;3.80;;;10.60;99.90;;;;;;5031064;28;20029;-60
2021/10/26 01:32:10;;;;;;;7.28;4.22;;;10.60;99.90;;;;;;5030966;28;20064;-60
2021/10/26 01:34:36;;;;;;;7.20;4.68;;;10.60;99.90;;;;;;5030290;28;20079;-59
2021/10/26 01:37:04;;;;;;;5.25;3.78;;;10.60;99.90;;;;;;5030333;28;20026;-61
2021/10/26 01:39:30;;;;;;;8.32;5.10;;;10.60;99.90;;;;;;5028875;28;20487;-61
2021/10/26 01:41:56;;;;;;;8.80;4.05;;;10.60;99.90;;;;;;5028159;28;20082;-60
2021/10/26 01:44:22;;;;;;;7.20;5.10;;;10.60;99.90;;;;;;5027983;28;20056;-60
2021/10/26 01:46:49;;;;;;;7.13;4.20;;;10.60;99.90;;;;;;5028525;28;20021;-61
2021/10/26 01:49:14;;;;;;;7.18;3.92;;;10.60;99.90;;;;;;5025863;28;20025;-59
2021/10/26 01:51:40;;;;;;;5.68;4.47;;;10.60;99.90;;;;;;5030252;28;20025;-61
2021/10/26 01:54:05;;;;;;;5.95;4.13;;;10.60;99.90;;;;;;5029814;28;20060;-61
2021/10/26 01:56:32;;;;;;;6.95;4.30;;;10.60;99.90;;;;;;5027863;28;20106;-61
2021/10/26 01:58:57;;;;;;;9.63;5.07;;;10.60;99.90;;;;;;5027174;28;20545;-61
2021/10/26 02:01:23;;;;;;;6.88;3.80;;;10.50;99.90;;;;;;5030065;28;20115;-61
2021/10/26 02:03:49;;;;;;;6.93;3.95;;;10.50;99.90;;;;;;5028239;28;20030;-61
2021/10/26 02:06:15;;;;;;;7.05;3.88;;;10.50;99.90;;;;;;5028947;28;20032;-60
2021/10/26 02:08:40;;;;;;;6.95;3.80;;;10.50;99.90;;;;;;5029137;28;20398;-60
2021/10/26 02:11:06;;;;;;;9.05;4.00;;;10.50;99.90;;;;;;5003307;28;20041;-60
2021/10/26 02:13:32;;;;;;;7.03;4.05;;;10.50;99.90;;;;;;5029949;28;20029;-59
2021/10/26 02:15:57;;;;;;;8.15;4.07;;;10.50;99.90;;;;;;5029967;28;20483;-61
2021/10/26 02:18:23;;;;;;;6.88;4.43;;;10.50;99.90;;;;;;5029456;28;20034;-61
2021/10/26 02:20:49;;;;;;;6.55;4.28;;;10.40;99.90;;;;;;5029644;28;20028;-59
2021/10/26 02:23:15;;;;;;;10.05;4.22;;;10.40;99.90;;;;;;5029817;28;20017;-60
2021/10/26 02:25:41;;;;;;;7.03;4.55;;;10.40;99.90;;;;;;5029218;28;20091;-60
2021/10/26 02:28:07;;;;;;;7.53;4.35;;;10.40;99.90;;;;;;5027661;28;20435;-61
2021/10/26 02:30:33;;;;;;;6.32;4.30;;;10.30;99.90;;;;;;5027007;28;20038;-59
2021/10/26 02:32:58;;;;;;;8.52;4.78;;;10.30;99.90;;;;;;5029566;28;20095;-58
2021/10/26 02:35:24;;;;;;;6.85;4.70;;;10.30;99.90;;;;;;5021840;28;20041;-59
2021/10/26 02:37:49;;;;;;;9.32;4.65;;;10.30;99.90;;;;;;5022977;28;20030;-57
2021/10/26 02:40:15;;;;;;;8.40;4.50;;;10.30;99.90;;;;;;5025607;28;20057;-59
2021/10/26 02:42:40;;;;;;;8.43;4.70;;;10.30;99.90;;;;;;5029587;28;20112;-59
2021/10/26 02:45:08;;;;;;;9.02;4.88;;;10.30;99.90;;;;;;5025965;28;20038;-59
2021/10/26 02:47:33;;;;;;;6.95;5.00;;;10.30;99.90;;;;;;5025310;28;20502;-60
2021/10/26 02:49:59;;;;;;;6.13;4.05;;;10.30;99.90;;;;;;5027074;28;20032;-60
2021/10/26 02:52:25;;;;;;;7.40;5.03;;;10.30;99.90;;;;;;5030017;28;20582;-58
2021/10/26 02:54:50;;;;;;;9.32;4.70;;;10.30;99.90;;;;;;5029781;28;20026;-59
2021/10/26 02:57:16;;;;;;;6.68;4.53;;;10.40;99.90;;;;;;5027367;28;20427;-59
2021/10/26 02:59:41;;;;;;;6.57;4.50;;;10.40;99.90;;;;;;5026211;28;20479;-59
2021/10/26 03:02:07;;;;;;;8.00;4.82;;;10.40;99.90;;;;;;5026013;28;20386;-58
2021/10/26 03:04:32;;;;;;;6.95;4.60;;;10.40;99.90;;;;;;5026893;28;20030;-59
2021/10/26 03:06:58;;;;;;;10.43;4.63;;;10.40;99.90;;;;;;5027219;28;20034;-57
2021/10/26 03:09:24;;;;;;;10.20;5.00;;;10.40;99.90;;;;;;5011894;28;20145;-59
2021/10/26 03:11:50;;;;;;;9.98;5.22;;;10.40;99.90;;;;;;5029890;28;20102;-59
2021/10/26 03:14:15;;;;;;;6.13;4.70;;;10.40;99.90;;;;;;5027331;28;20479;-60
2021/10/26 03:16:41;;;;;;;7.03;4.63;;;10.40;99.90;;;;;;5027314;28;20037;-59
2021/10/26 03:19:07;;;;;;;9.38;5.03;;;10.40;99.90;;;;;;5028256;28;20052;-59
2021/10/26 03:21:34;;;;;;;11.02;5.63;;;10.40;99.90;;;;;;5029880;28;20032;-59
2021/10/26 03:24:00;;;;;;;7.43;5.03;;;10.40;99.90;;;;;;5026963;28;20630;-59
2021/10/26 03:26:26;;;;;;;7.75;4.30;;;10.40;99.90;;;;;;5027319;28;20034;-59
2021/10/26 03:28:51;;;;;;;5.72;4.47;;;10.40;99.90;;;;;;5027970;28;20041;-59
2021/10/26 03:31:17;;;;;;;8.32;4.13;;;10.40;99.90;;;;;;5025080;28;20114;-58
2021/10/26 03:33:42;;;;;;;6.65;5.05;;;10.40;99.90;;;;;;5027937;28;20028;-60
2021/10/26 03:36:08;;;;;;;8.07;4.70;;;10.40;99.90;;;;;;5029288;28;20036;-59
2021/10/26 03:38:35;;;;;;;10.00;4.50;;;10.40;99.90;;;;;;5028171;28;20038;-59
2021/10/26 03:41:01;;;;;;;10.63;4.95;;;10.40;99.90;;;;;;5030461;28;20095;-58
2021/10/26 03:43:27;;;;;;;7.68;5.38;;;10.40;99.90;;;;;;5030002;28;20036;-60
2021/10/26 03:45:52;;;;;;;8.55;5.35;;;10.40;99.90;;;;;;5025382;28;20043;-57
2021/10/26 03:48:20;;;;;;;7.32;4.82;;;10.40;99.90;;;;;;5032148;28;20440;-58
2021/10/26 03:50:46;;;;;;;7.38;4.85;;;10.30;99.90;;;;;;5030826;28;20108;-57
2021/10/26 03:53:11;;;;;;;10.75;5.38;;;10.40;99.90;;;;;;5030676;28;20072;-59
2021/10/26 03:55:37;;;;;;;9.05;5.28;;;10.40;99.90;;;;;;5031949;28;20095;-58
2021/10/26 03:58:06;;;;;;;7.15;5.13;;;10.40;99.90;;;;;;5029694;28;20091;-58
2021/10/26 04:00:32;;;;;;;9.35;5.57;;;10.40;99.90;;;;;;5029244;28;20717;-58
2021/10/26 04:02:58;;;;;;;10.07;5.22;;;10.40;99.90;;;;;;5031288;28;20033;-59
2021/10/26 04:05:38;;;;;;;10.27;5.32;;;10.40;99.90;;;;;;5028995;28;20056;-59
2021/10/26 04:10:55;;;;;;;8.02;4.38;;;10.40;99.90;;;;;;4965879;28;20064;-59
2021/10/26 04:13:23;;;;;;;10.25;4.75;;;10.40;99.90;;;;;;5018874;28;20029;-58
2021/10/26 04:15:49;;;;;;;7.38;4.93;;;10.40;99.90;;;;;;5031634;28;20025;-59
2021/10/26 04:18:15;;;;;;;8.07;4.57;;;10.40;99.90;;;;;;5031940;28;20034;-59
2021/10/26 04:20:41;;;;;;;8.02;5.07;;;10.40;99.90;;;;;;5029600;28;20040;-59
2021/10/26 04:23:07;;;;;;;8.50;4.75;;;10.40;99.90;;;;;;5030669;28;20044;-59
2021/10/26 04:25:33;;;;;;;13.10;4.78;;;10.50;99.90;;;;;;5031454;28;20021;-59
2021/10/26 04:27:59;;;;;;;11.05;5.55;;;10.40;99.90;;;;;;5031595;28;20535;-59
2021/10/26 04:30:25;;;;;;;8.73;4.95;;;10.40;99.90;;;;;;5030815;28;20091;-60
2021/10/26 04:32:51;;;;;;;7.22;4.90;;;10.50;99.90;;;;;;5029955;28;20431;-60
2021/10/26 04:35:16;;;;;;;5.68;4.65;;;10.50;99.90;;;;;;5031591;28;20048;-59
2021/10/26 04:37:42;;;;;;;9.23;4.97;;;10.50;99.90;;;;;;5030161;28;20033;-59
2021/10/26 04:40:09;;;;;;;9.50;5.20;;;10.50;99.90;;;;;;5028922;28;20053;-58
2021/10/26 04:42:36;;;;;;;9.55;5.97;;;10.40;99.90;;;;;;5031392;28;20033;-57
2021/10/26 04:45:03;;;;;;;7.60;5.88;;;10.40;99.90;;;;;;5031116;28;20025;-59
2021/10/26 04:47:29;;;;;;;10.73;5.45;;;10.50;99.90;;;;;;5025134;28;20045;-59
2021/10/26 04:49:55;;;;;;;7.60;5.47;;;10.40;99.90;;;;;;5029543;28;20063;-59
2021/10/26 04:52:21;;;;;;;9.50;5.63;;;10.40;99.90;;;;;;5031537;28;20025;-58
2021/10/26 04:54:46;;;;;;;9.38;5.30;;;10.40;99.90;;;;;;5030529;28;20495;-58
2021/10/26 04:57:12;;;;;;;11.73;5.55;;;10.40;99.90;;;;;;5029476;28;20037;-58
2021/10/26 04:59:38;;;;;;;10.00;5.63;;;10.40;99.90;;;;;;5030882;28;20032;-60
2021/10/26 05:02:04;;;;;;;8.38;5.20;;;10.40;99.90;;;;;;5030411;28;20036;-59
2021/10/26 05:04:29;;;;;;;7.88;4.78;;;10.30;99.90;;;;;;5031404;28;20029;-58
2021/10/26 05:06:55;;;;;;;6.95;5.38;;;10.20;99.90;;;;;;5030758;28;20029;-60
2021/10/26 05:09:24;;;;;;;7.32;5.07;;;10.20;99.90;;;;;;5025420;28;20033;-60
2021/10/26 05:11:49;;;;;;;8.48;5.50;;;10.20;99.90;;;;;;5004882;28;20050;-59
2021/10/26 05:14:15;;;;;;;9.20;5.72;;;10.20;99.90;;;;;;5028967;28;20112;-59
2021/10/26 05:16:43;;;;;;;8.63;5.28;;;10.20;99.90;;;;;;5029894;28;20601;-59
2021/10/26 05:19:09;;;;;;;8.52;4.50;;;10.30;99.90;;;;;;5030496;28;20037;-60
2021/10/26 05:21:35;;;;;;;10.20;6.50;;;10.30;99.90;;;;;;5029205;28;20029;-60
2021/10/26 05:24:01;;;;;;;12.77;5.85;;;10.30;99.90;;;;;;5030082;28;20093;-57
2021/10/26 05:26:26;;;;;;;9.95;5.35;;;10.30;99.90;;;;;;5027520;28;20037;-59
2021/10/26 05:28:53;;;;;;;9.20;6.05;;;10.30;99.90;;;;;;5030202;28;20037;-59
2021/10/26 05:31:19;;;;;;;11.88;5.78;;;10.30;99.90;;;;;;5028420;28;20052;-59
2021/10/26 05:33:46;;;;;;;9.73;5.60;;;10.30;99.90;;;;;;5029656;28;21804;-59
2021/10/26 05:36:12;;;;;;;11.55;6.38;;;10.30;99.90;;;;;;5028013;28;20069;-60
2021/10/26 05:38:39;;;;;;;10.27;5.82;;;10.30;99.90;;;;;;5027536;28;20034;-59
2021/10/26 05:41:04;;;;;;;9.93;5.60;;;10.30;99.90;;;;;;5029350;28;20740;-59
2021/10/26 05:43:30;;;;;;;10.35;5.95;;;10.30;99.90;;;;;;5029430;28;20040;-60
2021/10/26 05:45:57;;;;;;;10.88;6.00;;;10.30;99.90;;;;;;5026341;28;20108;-60
2021/10/26 05:48:22;;;;;;;11.25;5.75;;;10.30;99.90;;;;;;5028700;28;20125;-58
2021/10/26 05:50:48;;;;;;;11.27;5.90;;;10.30;99.90;;;;;;5029067;28;20538;-59
2021/10/26 05:53:14;;;;;;;9.43;5.85;;;10.30;99.90;;;;;;5029583;28;20418;-60
2021/10/26 05:55:42;;;;;;;10.68;5.88;;;10.40;99.90;;;;;;5030455;28;20034;-59
2021/10/26 05:58:11;;;;;;;8.15;5.80;;;10.40;99.90;;;;;;5030201;28;20053;-58
2021/10/26 06:00:37;;;;;;;12.00;7.47;;;10.40;99.90;;;;;;5028559;28;20029;-59
2021/10/26 06:03:02;;;;;;;14.23;8.07;;;10.30;99.90;;;;;;5028721;28;20494;-59
2021/10/26 06:05:28;;;;;;;11.18;6.50;;;10.40;99.90;;;;;;5026242;28;20098;-59
2021/10/26 06:07:54;;;;;;;13.30;5.82;;;10.40;99.90;;;;;;5029209;28;20040;-59
2021/10/26 06:10:20;;;;;;;10.55;6.82;;;10.40;99.90;;;;;;5009574;28;20049;-59
2021/10/26 06:12:52;;;;;;;8.95;6.55;;;10.40;99.90;;;;;;5028027;28;20021;-59
2021/10/26 06:15:17;;;;;;;9.40;5.68;;;10.40;99.90;;;;;;5029005;28;20104;-58
2021/10/26 06:17:43;;;;;;;10.73;6.07;;;10.40;99.90;;;;;;5029025;28;20485;-59
2021/10/26 06:20:13;;;;;;;12.13;6.20;;;10.40;99.90;;;;;;5027990;28;20042;-59
2021/10/26 06:22:39;;;;;;;12.25;6.30;;;10.40;99.90;;;;;;5028984;28;20108;-59
2021/10/26 06:25:05;;;;;;;9.38;6.05;;;10.40;99.90;;;;;;5029120;28;20109;-58
2021/10/26 06:27:31;;;;;;;8.80;5.82;;;10.40;99.90;;;;;;5029469;28;20051;-60
2021/10/26 06:29:59;;;;;;;11.85;6.43;;;10.40;99.90;;;;;;5029777;28;20025;-59
2021/10/26 06:32:25;;;;;;;8.40;5.32;;;10.40;99.90;;;;;;5029873;28;20034;-59
2021/10/26 06:34:50;;;;;;;10.32;6.35;;;10.40;99.90;;;;;;5029211;28;20557;-60
2021/10/26 06:37:16;;;;;;;13.98;6.40;;;10.40;99.90;;;;;;5050936;23;20000;-60
2021/10/26 06:39:41;;;;;;;9.70;6.38;;;10.40;99.90;;;;;;5036184;28;20084;-60
2021/10/26 06:42:07;;;;;;;11.63;6.78;;;10.50;99.90;;;;;;5029420;28;20075;-60
2021/10/26 06:44:33;;;;;;;8.85;5.78;;;10.40;99.90;;;;;;5028805;28;20566;-59
2021/10/26 06:46:58;;;;;;;10.30;5.93;;;10.40;99.90;;;;;;5028599;28;20032;-59
2021/10/26 06:49:24;;;;;;;15.82;6.55;;;10.50;99.90;;;;;;5029017;28;20068;-60
2021/10/26 06:51:49;;;;;;;9.93;6.68;;;10.50;99.90;;;;;;5029801;28;20037;-61
2021/10/26 06:54:15;;;;;;;12.68;6.45;;;10.50;99.90;;;;;;5028932;28;20037;-59
2021/10/26 06:56:41;;;;;;;9.60;6.50;;;10.50;99.90;;;;;;5030055;28;20029;-61
2021/10/26 06:59:07;;;;;;;14.52;6.35;;;10.60;99.90;;;;;;5027855;28;20095;-60
2021/10/26 07:01:33;;;;;;;11.30;5.93;;;10.50;99.90;;;;;;5023303;28;20026;-60
2021/10/26 07:03:58;;;;;;;9.23;5.95;;;10.60;99.90;;;;;;5026395;28;20033;-60
2021/10/26 07:06:24;;;;;;;9.27;6.00;;;10.60;99.90;;;;;;5026424;28;20033;-60
2021/10/26 07:08:49;;;;;;;9.32;6.20;;;10.60;99.90;;;;;;5026643;28;20049;-62
2021/10/26 07:11:15;;;;;;;8.75;5.38;;;10.60;99.90;;;;;;5014019;28;20061;-60
2021/10/26 07:13:40;;;;;;;11.32;6.40;;;10.70;99.90;;;;;;5033369;28;20029;-61
2021/10/26 07:16:07;;;;;;;8.57;5.72;;;10.70;99.90;;;;;;5035299;28;20482;-60
2021/10/26 07:18:33;;;;;;;9.07;6.05;;;10.80;99.90;;;;;;5044224;28;20083;-61
2021/10/26 07:20:59;;;;;;;12.98;7.45;;;10.80;99.90;;;;;;5041573;28;20034;-60
2021/10/26 07:23:25;;;;;;;21.00;11.23;;;10.80;99.90;;;;;;5032688;28;20044;-60
2021/10/26 07:25:51;;;;;;;16.75;9.43;;;10.80;99.90;;;;;;5032321;28;20057;-58
2021/10/26 07:28:17;;;;;;;13.90;7.13;;;10.90;99.90;;;;;;5031581;28;20112;-60
2021/10/26 07:30:45;;;;;;;18.13;7.00;;;10.90;99.90;;;;;;5031390;28;20033;-62
2021/10/26 07:33:18;;;;;;;14.68;8.15;;;10.90;99.90;;;;;;5031953;28;20528;-59
2021/10/26 07:35:45;;;;;;;10.88;6.72;;;10.90;99.90;;;;;;5028564;28;20449;-55
2021/10/26 07:38:13;;;;;;;14.82;6.72;;;10.90;99.90;;;;;;5031947;28;20095;-60
2021/10/26 07:40:39;;;;;;;10.90;5.45;;;10.90;99.90;;;;;;5031182;28;20395;-60
2021/10/26 07:43:05;;;;;;;16.17;5.47;;;11.00;99.90;;;;;;5032192;28;20021;-61
2021/10/26 07:45:31;;;;;;;9.48;4.90;;;11.00;99.90;;;;;;5032068;28;20109;-60
2021/10/26 07:47:57;;;;;;;11.30;5.93;;;11.10;99.90;;;;;;5031862;28;20033;-58
2021/10/26 07:50:23;;;;;;;10.82;5.13;;;11.10;99.90;;;;;;5031252;28;20376;-61
2021/10/26 07:52:49;;;;;;;9.73;4.50;;;11.30;99.90;;;;;;5030215;28;20079;-59
2021/10/26 07:55:14;;;;;;;5.30;3.88;;;11.40;99.90;;;;;;5036736;28;20029;-53
2021/10/26 07:57:40;;;;;;;7.28;4.32;;;11.50;99.90;;;;;;5030661;28;20026;-62
2021/10/26 08:00:07;;;;;;;6.72;4.50;;;11.60;99.90;;;;;;5032486;28;20029;-61
2021/10/26 08:02:33;;;;;;;8.93;5.00;;;11.70;99.90;;;;;;5032767;28;20073;-60
2021/10/26 08:04:59;;;;;;;8.65;4.88;;;11.80;99.90;;;;;;5031538;28;20036;-60
2021/10/26 08:07:25;;;;;;;9.77;4.28;;;11.80;99.90;;;;;;5029833;28;20101;-60
2021/10/26 08:09:56;;;;;;;9.80;5.18;;;11.90;99.90;;;;;;5030166;28;20044;-60
2021/10/26 08:12:23;;;;;;;6.57;4.22;;;11.90;99.90;;;;;;5011261;28;20110;-61
2021/10/26 08:14:50;;;;;;;8.10;4.72;;;12.00;99.90;;;;;;5031408;28;20021;-62
2021/10/26 08:17:17;;;;;;;9.40;4.82;;;12.00;99.90;;;;;;5032105;28;20029;-60
2021/10/26 08:19:44;;;;;;;7.57;4.75;;;12.00;99.90;;;;;;5031049;28;20127;-62
2021/10/26 08:22:14;;;;;;;10.15;6.60;;;12.00;99.90;;;;;;5032113;28;20112;-61
2021/10/26 08:24:40;;;;;;;11.20;5.07;;;12.10;99.90;;;;;;5031509;28;20025;-61
2021/10/26 08:27:09;;;;;;;10.20;4.90;;;12.10;99.90;;;;;;5032165;28;20073;-63
2021/10/26 08:30:00;;;;;;;7.88;3.67;;;12.10;99.90;;;;;;5031432;28;20161;-62
2021/10/26 08:37:18;;;;;;;7.53;4.20;;;12.50;99.90;;;;;;5031891;28;20380;-62
2021/10/26 08:39:45;;;;;;;6.13;3.83;;;12.60;99.90;;;;;;5030744;28;20026;-62
2021/10/26 08:42:18;;;;;;;7.97;3.40;;;12.70;99.90;;;;;;5032210;28;20021;-60
2021/10/26 08:44:44;;;;;;;10.65;3.38;;;12.70;99.90;;;;;;5031291;28;20025;-61
2021/10/26 08:47:12;;;;;;;10.30;4.43;;;12.70;99.90;;;;;;5031729;28;20112;-61
2021/10/26 08:49:38;;;;;;;11.43;4.20;;;12.80;99.90;;;;;;5030681;28;20037;-60
2021/10/26 08:52:06;;;;;;;7.28;4.03;;;12.80;99.90;;;;;;5031495;28;20025;-63
2021/10/26 08:54:32;;;;;;;8.02;5.38;;;12.90;99.90;;;;;;5030051;28;20068;-62
2021/10/26 08:56:59;;;;;;;11.40;7.85;;;13.00;99.90;;;;;;5029443;28;20033;-59
2021/10/26 08:59:25;;;;;;;7.82;5.50;;;13.00;99.90;;;;;;5029285;28;20394;-62
2021/10/26 09:01:58;;;;;;;11.70;9.13;;;13.00;99.90;;;;;;5023707;28;20029;-61
2021/10/26 09:04:35;;;;;;;12.23;4.57;;;13.00;99.90;;;;;;5029647;28;20076;-62
2021/10/26 09:07:06;;;;;;;9.00;4.47;;;13.10;99.90;;;;;;5028992;28;20017;-62
2021/10/26 09:09:35;;;;;;;9.02;3.22;;;13.10;99.90;;;;;;5028690;28;20064;-61
2021/10/26 09:17:55;;;;;;;9.15;3.50;;;13.10;99.90;;;;;;5030380;28;20064;-61
2021/10/26 09:20:23;;;;;;;20.77;11.88;;;13.10;99.90;;;;;;5029944;28;20072;-63
2021/10/26 09:22:51;;;;;;;9.25;5.55;;;13.20;99.90;;;;;;5011954;28;20018;-62
2021/10/26 09:25:19;;;;;;;5.45;3.53;;;13.40;99.90;;;;;;5025943;28;20032;-61
2021/10/26 09:27:45;;;;;;;12.32;4.15;;;13.50;99.90;;;;;;5029627;28;20033;-62
2021/10/26 09:30:13;;;;;;;6.85;3.03;;;13.70;99.90;;;;;;5029746;28;20026;-62
2021/10/26 09:32:47;;;;;;;7.75;2.47;;;14.00;99.90;;;;;;5028677;28;20036;-62
2021/10/26 09:35:18;;;;;;;8.63;2.22;;;14.50;99.90;;;;;;5027987;28;20075;-62
2021/10/26 09:37:49;;;;;;;6.95;2.22;;;14.80;99.90;;;;;;5029675;28;20037;-62
2021/10/26 09:40:16;;;;;;;5.93;3.38;;;15.10;99.90;;;;;;5030246;28;20021;-62
2021/10/26 09:42:48;;;;;;;7.35;3.40;;;15.40;99.90;;;;;;5030678;28;20017;-63
2021/10/26 09:45:26;;;;;;;6.03;2.20;;;15.40;99.90;;;;;;5030147;28;20031;-62
2021/10/26 09:48:14;;;;;;;6.95;2.30;;;15.30;99.90;;;;;;5030013;28;20088;-62
2021/10/26 09:50:41;;;;;;;8.05;3.50;;;15.00;99.90;;;;;;5027140;28;20075;-62
2021/10/26 09:53:10;;;;;;;6.13;3.78;;;14.80;99.90;;;;;;5028091;28;20048;-60
2021/10/26 09:55:44;;;;;;;4.72;2.33;;;14.70;99.90;;;;;;5029433;28;20024;-62
2021/10/26 09:58:13;;;;;;;7.18;3.08;;;14.50;99.90;;;;;;5028007;28;20025;-61
2021/10/26 10:00:42;;;;;;;8.85;2.90;;;14.40;99.90;;;;;;5027841;28;20029;-62
2021/10/26 10:03:24;;;;;;;8.73;3.90;;;14.20;99.90;;;;;;5030200;28;20043;-60
2021/10/26 10:05:54;;;;;;;5.75;2.60;;;14.30;99.90;;;;;;5028032;28;20030;-62
2021/10/26 10:08:34;;;;;;;7.25;3.40;;;14.20;99.90;;;;;;5027176;28;20029;-60
2021/10/26 10:11:17;;;;;;;11.30;3.15;;;14.20;99.90;;;;;;5027703;28;20036;-59
2021/10/26 10:13:56;;;;;;;7.90;3.70;;;14.10;99.90;;;;;;5028572;28;20512;-62
2021/10/26 10:16:23;;;;;;;8.60;3.20;;;14.30;99.90;;;;;;5030074;28;20639;-61
2021/10/26 10:18:52;;;;;;;10.13;3.80;;;14.60;99.90;;;;;;5029432;28;20059;-62
2021/10/26 10:21:28;;;;;;;9.27;2.90;;;14.90;99.90;;;;;;5029506;28;20104;-62
2021/10/26 10:24:00;;;;;;;5.78;2.30;;;15.00;99.90;;;;;;5029174;28;20550;-62
2021/10/26 10:26:28;;;;;;;8.70;2.13;;;15.00;99.90;;;;;;5029312;28;20113;-60
2021/10/26 10:28:59;;;;;;;12.75;6.65;;;15.30;99.90;;;;;;5029411;28;20041;-62
2021/10/26 10:31:28;;;;;;;5.45;2.22;;;15.40;99.90;;;;;;5029754;28;20105;-62
2021/10/26 10:33:54;;;;;;;6.90;3.75;;;15.30;99.90;;;;;;5028486;28;20068;-61
2021/10/26 10:36:22;;;;;;;9.40;3.75;;;15.50;99.90;;;;;;5029300;28;20037;-62
2021/10/26 10:38:49;;;;;;;6.88;2.20;;;15.70;99.90;;;;;;5028996;28;20076;-62
2021/10/26 10:41:28;;;;;;;8.43;2.05;;;16.00;99.90;;;;;;5029602;28;20108;-61
2021/10/26 10:44:08;;;;;;;7.05;1.92;;;16.40;99.90;;;;;;5028295;28;20030;-62
2021/10/26 10:46:43;;;;;;;9.63;2.10;;;16.30;99.90;;;;;;5032110;28;20053;-62
2021/10/26 10:49:24;;;;;;;5.55;3.22;;;16.20;99.90;;;;;;5032731;28;20580;-60
2021/10/26 10:51:56;;;;;;;6.45;3.10;;;16.20;99.90;;;;;;5023658;28;20033;-62
2021/10/26 10:54:38;;;;;;;10.38;2.88;;;15.80;99.90;;;;;;5032945;28;20025;-60
2021/10/26 10:57:17;;;;;;;9.25;2.08;;;15.60;99.90;;;;;;5030702;28;20022;-58
2021/10/26 10:59:55;;;;;;;10.38;5.47;;;15.40;99.90;;;;;;5029873;28;20026;-61
2021/10/26 11:02:32;;;;;;;8.00;2.17;;;15.40;99.90;;;;;;5033506;28;20499;-60
2021/10/26 11:04:58;;;;;;;3.97;2.05;;;15.50;99.90;;;;;;5031819;28;20033;-62
2021/10/26 11:07:42;;;;;;;5.07;2.15;;;15.50;99.90;;;;;;5032395;28;20568;-61
2021/10/26 11:10:16;;;;;;;13.05;2.72;;;15.60;99.90;;;;;;5032720;28;20030;-61
2021/10/26 11:12:45;;;;;;;8.10;2.03;;;15.70;99.90;;;;;;5015060;28;20128;-61
2021/10/26 11:15:21;;;;;;;4.05;1.55;;;15.90;99.90;;;;;;5033045;28;20509;-53
2021/10/26 11:17:49;;;;;;;10.07;4.20;;;16.00;99.90;;;;;;5031717;28;20018;-61
2021/10/26 11:20:27;;;;;;;8.98;2.20;;;15.90;99.90;;;;;;5032594;28;20076;-58
2021/10/26 11:23:02;;;;;;;5.55;1.70;;;15.90;99.90;;;;;;5026706;28;20037;-60
2021/10/26 11:25:28;;;;;;;5.20;1.77;;;16.20;99.90;;;;;;5032454;28;20052;-62
2021/10/26 11:27:55;;;;;;;5.35;2.15;;;16.20;99.90;;;;;;5033297;28;20459;-62
2021/10/26 11:30:36;;;;;;;6.70;2.30;;;16.10;99.90;;;;;;5032646;28;20025;-62
2021/10/26 11:33:14;;;;;;;4.15;1.42;;;16.10;99.90;;;;;;5017330;28;20072;-61
2021/10/26 11:35:52;;;;;;;6.75;1.63;;;15.90;99.90;;;;;;5031215;28;20030;-60
2021/10/26 11:38:21;;;;;;;6.43;3.45;;;15.70;99.90;;;;;;5031967;28;20033;-59
2021/10/26 11:40:59;;;;;;;7.10;2.70;;;15.70;99.90;;;;;;5032204;28;20025;-62
2021/10/26 11:43:26;;;;;;;6.75;2.40;;;15.70;99.90;;;;;;5033586;28;20069;-61
2021/10/26 11:45:57;;;;;;;5.57;1.75;;;15.90;99.90;;;;;;5031930;28;20072;-61
2021/10/26 11:48:42;;;;;;;5.85;1.40;;;16.10;99.90;;;;;;5018920;28;20071;-61
2021/10/26 11:51:34;;;;;;;5.60;2.17;;;16.00;99.90;;;;;;5016742;28;20021;-61
2021/10/26 11:54:05;;;;;;;4.30;1.60;;;15.90;99.90;;;;;;5032621;28;20430;-62
2021/10/26 11:56:35;;;;;;;7.00;1.85;;;15.80;99.90;;;;;;5032407;28;20025;-61
2021/10/26 11:59:02;;;;;;;5.38;1.52;;;15.90;99.90;;;;;;5030752;28;20040;-62
2021/10/26 12:01:46;;;;;;;3.88;1.77;;;15.90;99.90;;;;;;5032800;28;20040;-61
2021/10/26 12:04:13;;;;;;;;;;;15.90;99.90;;;;;;5032098;28;20064;-62
2021/10/26 12:06:39;;;;;;;4.57;1.50;;;15.80;99.90;;;;;;5031410;28;20378;-60
2021/10/26 12:09:10;;;;;;;7.10;1.80;;;15.80;99.90;;;;;;5039138;28;20056;-61
2021/10/26 12:11:36;;;;;;;3.90;1.60;;;15.60;99.90;;;;;;5021252;28;20065;-62
2021/10/26 12:14:35;;;;;;;8.10;2.58;;;15.50;99.90;;;;;;5031280;28;20029;-61
2021/10/26 12:17:23;;;;;;;5.45;2.20;;;15.50;99.90;;;;;;5019632;28;20030;-60
2021/10/26 12:20:06;;;;;;;5.63;1.65;;;15.60;99.90;;;;;;5031697;28;20025;-62
2021/10/26 12:22:32;;;;;;;5.80;2.30;;;15.50;99.90;;;;;;5023436;28;20075;-60
2021/10/26 12:25:00;;;;;;;9.32;2.25;;;15.60;99.90;;;;;;5032083;28;20025;-61
2021/10/26 12:27:31;;;;;;;7.03;2.40;;;15.70;99.90;;;;;;5036995;28;20048;-60
2021/10/26 12:30:27;;;;;;;8.43;3.08;;;15.80;99.90;;;;;;5042994;28;20494;-59
2021/10/26 12:32:53;;;;;;;7.32;2.08;;;15.80;99.90;;;;;;5009715;28;20519;-61
2021/10/26 12:35:19;;;;;;;4.45;1.55;;;15.80;99.90;;;;;;5031707;28;20075;-61
2021/10/26 12:37:45;;;;;;;9.93;1.80;;;15.60;99.90;;;;;;5030703;28;20112;-60
2021/10/26 12:40:20;;;;;;;9.38;5.13;;;15.50;99.90;;;;;;5030594;28;20091;-60
2021/10/26 12:43:00;;;;;;;3.17;1.63;;;15.50;99.90;;;;;;5024555;28;20541;-62
2021/10/26 12:45:34;;;;;;;9.25;2.97;;;15.50;99.90;;;;;;5026688;28;20641;-62
2021/10/26 12:48:06;;;;;;;7.35;2.28;;;15.50;99.90;;;;;;5042006;28;20028;-61
2021/10/26 12:50:51;;;;;;;6.30;2.28;;;15.60;99.90;;;;;;5032623;28;20127;-60
2021/10/26 12:53:21;;;;;;;7.50;2.60;;;15.50;99.90;;;;;;5031855;28;20104;-61
2021/10/26 12:55:53;;;;;;;4.93;1.33;;;15.50;99.90;;;;;;5030746;28;20033;-61
2021/10/26 13:00:47;;;;;;;5.47;1.60;;;15.90;99.90;;;;;;5034750;28;20045;-58
2021/10/26 13:03:15;;;;;;;4.35;1.70;;;15.90;99.90;;;;;;5047543;28;20394;-61
2021/10/26 13:05:51;;;;;;;7.60;2.28;;;15.90;99.90;;;;;;5049797;28;20081;-60
2021/10/26 13:08:19;;;;;;;8.25;1.88;;;15.90;99.90;;;;;;5047242;28;20036;-59